createdAt,value
2022-08-27T00:00:10.265Z,5.00
2022-08-27T00:02:37.965Z,5.00
2022-08-27T00:05:05.577Z,4.60
2022-08-27T00:07:33.263Z,2.00
2022-08-27T00:10:01.176Z,5.00
2022-08-27T00:12:28.839Z,4.00
2022-08-27T00:14:56.512Z,1.00
2022-08-27T00:17:24.165Z,5.80
2022-08-27T00:19:54.361Z,5.00
2022-08-27T00:22:21.968Z,4.00
2022-08-27T00:24:49.627Z,6.60
2022-08-27T00:27:17.243Z,4.00
2022-08-27T00:29:45.289Z,8.40
2022-08-27T00:32:13.074Z,5.40
2022-08-27T00:34:40.969Z,7.40
2022-08-27T00:37:08.684Z,7.00
2022-08-27T00:39:37.384Z,5.80
2022-08-27T00:42:05.006Z,5.00
2022-08-27T00:44:32.684Z,2.80
2022-08-27T00:47:01.552Z,5.00
2022-08-27T00:49:29.970Z,8.80
2022-08-27T00:51:57.701Z,16.00
2022-08-27T00:54:26.444Z,11.00
2022-08-27T00:56:54.145Z,11.00
2022-08-27T00:59:22.315Z,4.40
2022-08-27T01:02:07.282Z,14.00
2022-08-27T01:04:35.004Z,10.80
2022-08-27T01:07:02.706Z,11.00
2022-08-27T01:09:30.804Z,8.00
2022-08-27T01:11:58.478Z,11.80
2022-08-27T01:14:26.245Z,7.00
2022-08-27T01:16:54.431Z,7.40
2022-08-27T01:19:23.519Z,8.80
2022-08-27T01:21:51.354Z,9.40
2022-08-27T01:24:19.092Z,8.40
2022-08-27T01:26:46.813Z,13.60
2022-08-27T01:29:14.905Z,10.40
2022-08-27T01:31:42.616Z,12.20
2022-08-27T01:34:10.350Z,8.80
2022-08-27T01:36:38.069Z,13.60
2022-08-27T01:39:06.521Z,13.80
2022-08-27T01:41:34.370Z,13.20
2022-08-27T01:44:02.342Z,12.60
2022-08-27T01:46:30.175Z,13.20
2022-08-27T01:48:58.400Z,15.00
2022-08-27T01:51:26.063Z,13.00
2022-08-27T01:53:54.112Z,13.00
2022-08-27T01:56:21.722Z,13.40
2022-08-27T01:58:49.732Z,13.20
2022-08-27T02:01:17.810Z,7.00
2022-08-27T02:03:47.512Z,12.80
2022-08-27T02:06:15.114Z,4.00
2022-08-27T02:08:44.243Z,10.00
2022-08-27T02:11:11.827Z,9.20
2022-08-27T02:13:40.099Z,13.20
2022-08-27T02:16:07.880Z,8.20
2022-08-27T02:18:37.137Z,9.00
2022-08-27T02:21:05.033Z,7.00
2022-08-27T02:23:32.701Z,9.60
2022-08-27T02:26:01.047Z,9.20
2022-08-27T02:28:29.055Z,10.40
2022-08-27T02:30:56.747Z,8.00
2022-08-27T02:33:24.367Z,10.00
2022-08-27T02:35:52.086Z,9.20
2022-08-27T02:38:20.704Z,11.20
2022-08-27T02:40:48.803Z,8.00
2022-08-27T02:43:16.512Z,11.00
2022-08-27T02:45:53.217Z,7.20
2022-08-27T02:48:21.541Z,9.20
2022-08-27T02:50:49.142Z,7.00
2022-08-27T02:53:16.814Z,9.60
2022-08-27T02:55:44.880Z,6.60
2022-08-27T02:58:15.609Z,4.00
2022-08-27T03:00:43.263Z,12.40
2022-08-27T03:03:11.146Z,11.20
2022-08-27T03:05:38.732Z,7.80
2022-08-27T03:08:06.437Z,11.40
2022-08-27T03:10:34.049Z,8.80
2022-08-27T03:13:01.703Z,5.60
2022-08-27T03:15:29.300Z,12.60
2022-08-27T03:18:14.794Z,3.60
2022-08-27T03:20:42.411Z,15.60
2022-08-27T03:23:10.193Z,13.00
2022-08-27T03:25:37.900Z,13.60
2022-08-27T03:28:13.472Z,15.60
2022-08-27T03:30:52.020Z,13.60
2022-08-27T03:33:19.887Z,10.00
2022-08-27T03:35:51.547Z,10.20
2022-08-27T03:38:19.646Z,10.80
2022-08-27T03:40:47.787Z,16.20
2022-08-27T03:43:15.419Z,10.60
2022-08-27T03:45:50.368Z,12.40
2022-08-27T03:48:29.738Z,10.00
2022-08-27T03:50:57.936Z,8.00
2022-08-27T03:53:26.130Z,12.00
2022-08-27T03:55:53.840Z,8.20
2022-08-27T03:58:21.496Z,8.80
2022-08-27T04:00:49.452Z,11.20
2022-08-27T04:03:17.221Z,10.60
2022-08-27T04:05:45.255Z,11.40
2022-08-27T04:08:13.538Z,12.80
2022-08-27T04:10:41.658Z,7.00
2022-08-27T04:13:09.286Z,9.40
2022-08-27T04:15:40.695Z,9.80
2022-08-27T04:18:08.679Z,11.00
2022-08-27T04:20:36.720Z,10.00
2022-08-27T04:23:04.387Z,12.00
2022-08-27T04:25:32.046Z,9.60
2022-08-27T04:27:59.697Z,9.80
2022-08-27T04:30:27.906Z,9.00
2022-08-27T04:32:55.525Z,9.60
2022-08-27T04:35:23.430Z,10.60
2022-08-27T04:37:51.186Z,6.20
2022-08-27T04:40:19.381Z,6.00
2022-08-27T04:42:47.166Z,6.00
2022-08-27T04:45:14.785Z,8.60
2022-08-27T04:47:42.432Z,8.00
2022-08-27T04:50:10.572Z,11.00
2022-08-27T04:52:41.049Z,6.40
2022-08-27T04:55:09.228Z,8.00
2022-08-27T04:57:38.174Z,7.00
2022-08-27T05:00:07.149Z,8.40
2022-08-27T05:02:34.875Z,7.80
2022-08-27T05:05:02.574Z,7.00
2022-08-27T05:07:30.293Z,6.00
2022-08-27T05:09:58.467Z,7.80
2022-08-27T05:12:26.130Z,6.00
2022-08-27T05:14:53.814Z,5.80
2022-08-27T05:17:22.012Z,6.40
2022-08-27T05:19:50.173Z,4.20
2022-08-27T05:22:17.825Z,4.00
2022-08-27T05:24:50.275Z,8.40
2022-08-27T05:27:18.229Z,9.60
2022-08-27T05:29:47.011Z,7.00
2022-08-27T05:32:14.804Z,6.00
2022-08-27T05:34:42.461Z,6.80
2022-08-27T05:37:10.093Z,5.20
2022-08-27T05:39:38.131Z,4.00
2022-08-27T05:42:06.014Z,7.00
2022-08-27T05:44:41.865Z,9.00
2022-08-27T05:47:10.228Z,6.00
2022-08-27T05:49:38.784Z,6.60
2022-08-27T05:52:06.464Z,5.00
2022-08-27T05:54:34.050Z,6.40
2022-08-27T05:57:01.708Z,6.00
2022-08-27T05:59:47.030Z,5.40
2022-08-27T06:02:14.740Z,7.00
2022-08-27T06:04:42.408Z,7.00
2022-08-27T06:07:10.750Z,6.00
2022-08-27T06:09:38.736Z,3.00
2022-08-27T06:12:06.333Z,5.60
2022-08-27T06:14:34.028Z,4.60
2022-08-27T06:17:01.646Z,6.20
2022-08-27T06:19:29.804Z,5.80
2022-08-27T06:22:00.925Z,4.80
2022-08-27T06:24:39.165Z,6.20
2022-08-27T06:27:07.374Z,8.40
2022-08-27T06:29:35.359Z,5.60
2022-08-27T06:32:03.067Z,7.20
2022-08-27T06:34:30.790Z,6.00
2022-08-27T06:36:59.833Z,5.80
2022-08-27T06:39:28.022Z,3.20
2022-08-27T06:41:58.633Z,4.60
2022-08-27T06:44:26.487Z,7.00
2022-08-27T06:46:54.093Z,4.60
2022-08-27T06:49:23.428Z,6.40
2022-08-27T06:51:51.105Z,5.80
2022-08-27T06:54:20.148Z,7.00
2022-08-27T06:56:49.645Z,4.60
2022-08-27T06:59:17.725Z,6.00
2022-08-27T07:01:45.547Z,7.80
2022-08-27T07:04:13.301Z,5.40
2022-08-27T07:06:41.367Z,8.00
2022-08-27T07:09:09.629Z,8.80
2022-08-27T07:11:37.603Z,6.60
2022-08-27T07:14:06.158Z,3.00
2022-08-27T07:16:34.007Z,2.40
2022-08-27T07:19:04.040Z,6.20
2022-08-27T07:21:32.021Z,6.00
2022-08-27T07:24:04.965Z,8.20
2022-08-27T07:26:33.164Z,6.40
2022-08-27T07:29:01.181Z,6.80
2022-08-27T07:31:28.981Z,4.20
2022-08-27T07:33:56.667Z,4.80
2022-08-27T07:36:24.604Z,4.00
2022-08-27T07:39:01.414Z,7.40
2022-08-27T07:41:31.209Z,6.60
2022-08-27T07:44:13.518Z,5.20
2022-08-27T07:46:47.015Z,5.20
2022-08-27T07:49:15.433Z,5.60
2022-08-27T07:51:43.117Z,7.60
2022-08-27T07:54:10.976Z,5.20
2022-08-27T07:56:38.644Z,6.00
2022-08-27T07:59:06.342Z,4.80
2022-08-27T08:01:34.068Z,4.80
2022-08-27T08:04:01.834Z,4.40
2022-08-27T08:06:30.189Z,4.00
2022-08-27T08:08:57.872Z,4.40
2022-08-27T08:11:25.465Z,4.80
2022-08-27T08:13:53.130Z,5.00
2022-08-27T08:16:21.311Z,3.80
2022-08-27T08:18:49.009Z,4.20
2022-08-27T08:21:16.664Z,5.20
2022-08-27T08:23:44.354Z,3.60
2022-08-27T08:26:12.462Z,7.20
2022-08-27T08:28:40.247Z,5.40
2022-08-27T08:31:08.403Z,4.00
2022-08-27T08:33:36.074Z,5.00
2022-08-27T08:36:03.767Z,2.00
2022-08-27T08:38:31.424Z,4.00
2022-08-27T08:40:59.132Z,4.00
2022-08-27T08:43:26.844Z,2.80
2022-08-27T08:45:55.093Z,4.60
2022-08-27T08:48:22.817Z,4.60
2022-08-27T08:50:50.470Z,5.00
2022-08-27T08:53:20.212Z,4.00
2022-08-27T08:55:48.326Z,3.60
2022-08-27T08:58:16.005Z,4.00
2022-08-27T09:00:43.660Z,1.00
2022-08-27T09:03:11.410Z,2.00
2022-08-27T09:05:39.088Z,5.00
2022-08-27T09:08:30.877Z,4.00
2022-08-27T09:10:54.549Z,2.40
2022-08-27T09:13:22.296Z,1.60
2022-08-27T09:15:50.201Z,4.00
2022-08-27T09:18:18.521Z,2.00
2022-08-27T09:20:48.341Z,3.20
2022-08-27T09:23:16.450Z,1.80
2022-08-27T09:25:44.862Z,4.00
2022-08-27T09:28:32.778Z,3.60
2022-08-27T09:31:00.588Z,4.20
2022-08-27T09:33:28.406Z,5.00
2022-08-27T09:36:12.358Z,5.00
2022-08-27T09:38:40.356Z,4.00
2022-08-27T09:41:08.508Z,4.00
2022-08-27T09:43:37.129Z,5.00
2022-08-27T09:46:05.054Z,2.80
2022-08-27T09:48:32.744Z,2.00
2022-08-27T09:51:00.747Z,2.40
2022-08-27T09:53:28.443Z,1.20
2022-08-27T09:55:56.211Z,4.00
2022-08-27T09:58:23.871Z,3.20
2022-08-27T10:00:52.103Z,4.00
2022-08-27T10:03:19.893Z,2.00
2022-08-27T10:05:51.986Z,3.20
2022-08-27T10:08:19.978Z,3.80
2022-08-27T10:10:48.895Z,4.00
2022-08-27T10:13:16.587Z,0.60
2022-08-27T10:15:47.757Z,2.00
2022-08-27T10:18:17.875Z,2.00
2022-08-27T10:20:45.954Z,2.00
2022-08-27T10:23:13.807Z,2.00
2022-08-27T10:25:41.451Z,1.00
2022-08-27T10:28:09.326Z,3.20
2022-08-27T10:30:37.475Z,1.80
2022-08-27T10:33:05.559Z,1.80
2022-08-27T10:35:33.632Z,1.60
2022-08-27T10:38:01.426Z,2.00
2022-08-27T10:40:29.704Z,4.00
2022-08-27T10:42:57.948Z,2.00
2022-08-27T10:45:30.907Z,5.00
2022-08-27T10:47:59.399Z,1.80
2022-08-27T10:50:29.429Z,1.40
2022-08-27T10:52:57.170Z,2.00
2022-08-27T10:55:27.141Z,2.00
2022-08-27T10:58:00.377Z,2.00
2022-08-27T11:00:28.774Z,2.00
2022-08-27T11:02:56.516Z,3.60
2022-08-27T11:05:24.194Z,2.00
2022-08-27T11:07:52.726Z,4.00
2022-08-27T11:10:21.118Z,2.00
2022-08-27T11:12:48.892Z,1.20
2022-08-27T11:15:16.546Z,2.00
2022-08-27T11:17:44.561Z,2.00
2022-08-27T11:20:12.236Z,2.00
2022-08-27T11:22:39.914Z,2.00
2022-08-27T11:25:07.541Z,1.40
2022-08-27T11:27:36.009Z,2.00
2022-08-27T11:30:04.296Z,1.40
2022-08-27T11:32:31.968Z,3.60
2022-08-27T11:34:59.686Z,4.00
2022-08-27T11:37:27.372Z,1.40
2022-08-27T11:39:55.590Z,3.60
2022-08-27T11:42:23.326Z,2.80
2022-08-27T11:44:51.239Z,1.00
2022-08-27T11:47:18.930Z,2.80
2022-08-27T11:49:47.186Z,2.00
2022-08-27T11:52:15.368Z,3.40
2022-08-27T11:54:44.506Z,4.00
2022-08-27T11:57:12.149Z,4.80
2022-08-27T11:59:40.574Z,2.80
2022-08-27T12:02:08.263Z,1.60
2022-08-27T12:04:36.116Z,2.00
2022-08-27T12:07:03.876Z,2.00
2022-08-27T12:09:31.993Z,2.00
2022-08-27T12:11:59.666Z,2.80
2022-08-27T12:14:27.389Z,2.00
2022-08-27T12:16:55.016Z,2.00
2022-08-27T12:19:25.215Z,2.00
2022-08-27T12:21:52.901Z,4.00
2022-08-27T12:24:20.734Z,2.00
2022-08-27T12:26:48.490Z,1.20
2022-08-27T12:29:16.579Z,1.00
2022-08-27T12:31:44.324Z,1.60
2022-08-27T12:34:12.023Z,1.60
2022-08-27T12:36:40.193Z,1.80
2022-08-27T12:39:10.243Z,1.80
2022-08-27T12:41:43.949Z,2.00
2022-08-27T12:44:13.266Z,2.00
2022-08-27T12:46:41.082Z,2.00
2022-08-27T12:49:36.141Z,4.00
2022-08-27T12:51:56.448Z,2.40
2022-08-27T12:54:30.169Z,1.60
2022-08-27T12:56:58.397Z,4.20
2022-08-27T12:59:26.128Z,4.20
2022-08-27T13:01:53.936Z,2.60
2022-08-27T13:04:21.695Z,4.00
2022-08-27T13:06:49.504Z,2.60
2022-08-27T13:09:17.475Z,2.80
2022-08-27T13:11:45.345Z,2.80
2022-08-27T13:14:13.105Z,2.80
2022-08-27T13:16:40.857Z,5.00
2022-08-27T13:19:09.611Z,2.40
2022-08-27T13:21:37.243Z,2.40
2022-08-27T13:24:04.942Z,5.20
2022-08-27T13:26:34.236Z,2.00
2022-08-27T13:29:03.960Z,3.40
2022-08-27T13:31:31.712Z,2.20
2022-08-27T13:33:59.657Z,1.80
2022-08-27T13:36:27.318Z,3.20
2022-08-27T13:38:57.853Z,2.40
2022-08-27T13:41:25.591Z,3.80
2022-08-27T13:43:58.537Z,3.00
2022-08-27T13:46:27.225Z,2.20
2022-08-27T13:48:55.400Z,2.80
2022-08-27T13:51:23.155Z,2.00
2022-08-27T13:54:08.340Z,2.20
2022-08-27T13:56:36.679Z,1.60
2022-08-27T13:59:04.411Z,3.80
2022-08-27T14:01:33.034Z,2.00
2022-08-27T14:04:00.838Z,2.60
2022-08-27T14:06:32.952Z,2.00
2022-08-27T14:09:04.143Z,2.80
2022-08-27T14:11:32.049Z,2.40
2022-08-27T14:14:00.193Z,5.00
2022-08-27T14:16:28.317Z,2.60
2022-08-27T14:18:59.316Z,2.00
2022-08-27T14:21:27.352Z,2.60
2022-08-27T14:23:55.289Z,2.00
2022-08-27T14:26:23.044Z,3.40
2022-08-27T14:28:51.117Z,2.80
2022-08-27T14:31:18.987Z,3.60
2022-08-27T14:33:47.654Z,2.00
2022-08-27T14:36:15.412Z,2.00
2022-08-27T14:38:43.499Z,3.80
2022-08-27T14:41:11.175Z,2.40
2022-08-27T14:43:39.155Z,2.00
2022-08-27T14:46:08.190Z,3.20
2022-08-27T14:48:37.113Z,2.00
2022-08-27T14:51:04.814Z,3.20
2022-08-27T14:53:32.542Z,3.00
2022-08-27T14:56:01.917Z,2.00
2022-08-27T14:58:29.682Z,3.20
2022-08-27T15:00:57.937Z,2.00
2022-08-27T15:03:26.407Z,3.20
2022-08-27T15:05:54.985Z,2.60
2022-08-27T15:08:27.391Z,3.60
2022-08-27T15:10:57.309Z,3.20
2022-08-27T15:13:24.925Z,4.80
2022-08-27T15:15:53.123Z,3.80
2022-08-27T15:18:20.919Z,3.40
2022-08-27T15:20:48.916Z,4.60
2022-08-27T15:23:16.951Z,3.00
2022-08-27T15:25:45.395Z,2.00
2022-08-27T15:28:13.384Z,3.40
2022-08-27T15:30:41.426Z,5.80
2022-08-27T15:33:09.161Z,3.00
2022-08-27T15:35:36.847Z,1.40
2022-08-27T15:38:04.567Z,2.80
2022-08-27T15:40:34.807Z,4.20
2022-08-27T15:43:03.367Z,5.20
2022-08-27T15:45:31.391Z,5.00
2022-08-27T15:47:59.467Z,4.60
2022-08-27T15:50:27.177Z,2.40
2022-08-27T15:52:55.041Z,2.20
2022-08-27T15:55:22.858Z,2.40
2022-08-27T15:57:51.021Z,2.80
2022-08-27T16:00:18.831Z,2.40
2022-08-27T16:02:46.657Z,2.80
2022-08-27T16:05:14.378Z,4.20
2022-08-27T16:07:42.495Z,3.00
2022-08-27T16:10:10.085Z,3.00
2022-08-27T16:12:37.999Z,3.80
2022-08-27T16:15:05.929Z,2.20
2022-08-27T16:17:34.538Z,2.00
2022-08-27T16:20:02.210Z,2.20
2022-08-27T16:22:29.919Z,1.00
2022-08-27T16:24:57.588Z,2.00
2022-08-27T16:27:25.560Z,3.20
2022-08-27T16:29:54.133Z,1.60
2022-08-27T16:32:23.020Z,2.00
2022-08-27T16:34:55.528Z,5.00
2022-08-27T16:37:23.774Z,6.00
2022-08-27T16:39:51.967Z,1.00
2022-08-27T16:42:19.646Z,3.80
2022-08-27T16:44:47.351Z,4.00
2022-08-27T16:47:15.134Z,4.00
2022-08-27T16:50:00.707Z,4.00
2022-08-27T16:52:28.366Z,2.40
2022-08-27T16:54:57.051Z,2.40
2022-08-27T16:57:25.942Z,3.60
2022-08-27T16:59:55.115Z,4.00
2022-08-27T17:02:22.938Z,4.00
2022-08-27T17:05:07.216Z,3.60
2022-08-27T17:07:41.671Z,3.20
2022-08-27T17:10:13.835Z,3.20
2022-08-27T17:12:41.508Z,2.00
2022-08-27T17:15:09.813Z,4.00
2022-08-27T17:17:39.008Z,2.00
2022-08-27T17:20:06.732Z,2.80
2022-08-27T17:22:35.097Z,2.80
2022-08-27T17:25:03.328Z,2.00
2022-08-27T17:27:31.195Z,2.80
2022-08-27T17:29:58.932Z,4.00
2022-08-27T17:32:26.684Z,2.80
2022-08-27T17:34:54.341Z,4.00
2022-08-27T17:37:22.237Z,2.00
2022-08-27T17:39:50.256Z,2.80
2022-08-27T17:42:18.005Z,3.60
2022-08-27T17:44:45.732Z,4.00
2022-08-27T17:47:13.356Z,4.00
2022-08-27T17:49:41.966Z,2.40
2022-08-27T17:52:10.876Z,2.00
2022-08-27T17:54:38.854Z,4.00
2022-08-27T17:57:07.135Z,3.20
2022-08-27T17:59:35.267Z,1.60
2022-08-27T18:02:03.053Z,4.00
2022-08-27T18:04:30.792Z,3.20
2022-08-27T18:06:58.882Z,4.00
2022-08-27T18:09:26.622Z,4.00
2022-08-27T18:11:54.415Z,2.80
2022-08-27T18:14:24.303Z,4.00
2022-08-27T18:16:52.462Z,2.00
2022-08-27T18:19:20.285Z,2.00
2022-08-27T18:21:48.014Z,1.20
2022-08-27T18:24:15.769Z,2.00
2022-08-27T18:26:43.803Z,4.00
2022-08-27T18:29:11.541Z,4.40
2022-08-27T18:31:39.171Z,3.60
2022-08-27T18:34:06.892Z,0.40
2022-08-27T18:36:35.922Z,1.20
2022-08-27T18:39:03.708Z,2.00
2022-08-27T18:41:31.406Z,4.00
2022-08-27T18:44:00.179Z,4.00
2022-08-27T18:46:27.961Z,2.80
2022-08-27T18:48:55.702Z,2.00
2022-08-27T18:51:23.687Z,4.60
2022-08-27T18:53:51.453Z,2.00
2022-08-27T18:56:19.645Z,5.00
2022-08-27T18:58:47.301Z,2.40
2022-08-27T19:01:15.390Z,3.60
2022-08-27T19:03:43.286Z,2.80
2022-08-27T19:06:11.130Z,7.00
2022-08-27T19:08:39.798Z,3.20
2022-08-27T19:11:07.489Z,3.20
2022-08-27T19:13:35.155Z,4.60
2022-08-27T19:16:02.987Z,4.60
2022-08-27T19:18:31.068Z,4.60
2022-08-27T19:20:58.810Z,2.80
2022-08-27T19:23:26.576Z,5.00
2022-08-27T19:25:54.247Z,4.40
2022-08-27T19:28:22.440Z,4.00
2022-08-27T19:30:50.145Z,4.00
2022-08-27T19:33:17.837Z,4.60
2022-08-27T19:35:45.616Z,3.20
2022-08-27T19:38:13.422Z,2.80
2022-08-27T19:40:41.646Z,5.00
2022-08-27T19:43:09.305Z,4.80
2022-08-27T19:45:40.474Z,4.00
2022-08-27T19:48:08.311Z,4.00
2022-08-27T19:50:36.462Z,2.00
2022-08-27T19:53:04.197Z,1.00
2022-08-27T19:55:31.892Z,3.20
2022-08-27T19:57:59.662Z,2.40
2022-08-27T20:00:28.051Z,4.80
2022-08-27T20:02:56.233Z,2.40
2022-08-27T20:05:24.105Z,2.40
2022-08-27T20:07:51.868Z,2.00
2022-08-27T20:10:19.959Z,4.80
2022-08-27T20:12:49.439Z,2.00
2022-08-27T20:15:17.227Z,5.00
2022-08-27T20:17:45.624Z,4.00
2022-08-27T20:20:13.727Z,1.40
2022-08-27T20:22:41.363Z,4.00
2022-08-27T20:25:09.673Z,4.00
2022-08-27T20:27:37.399Z,3.60
2022-08-27T20:30:05.666Z,2.00
2022-08-27T20:32:34.427Z,2.00
2022-08-27T20:35:02.090Z,3.20
2022-08-27T20:37:29.723Z,3.60
2022-08-27T20:39:58.212Z,2.00
2022-08-27T20:42:25.892Z,1.00
2022-08-27T20:44:54.578Z,4.40
2022-08-27T20:47:22.243Z,4.00
2022-08-27T20:49:50.383Z,2.00
2022-08-27T20:52:19.297Z,2.00
2022-08-27T20:54:47.009Z,2.00
2022-08-27T20:57:14.670Z,2.40
2022-08-27T20:59:59.991Z,2.00
2022-08-27T21:02:27.786Z,1.20
2022-08-27T21:04:55.533Z,2.00
2022-08-27T21:07:23.216Z,2.80
2022-08-27T21:09:55.984Z,2.00
2022-08-27T21:12:25.198Z,4.60
2022-08-27T21:14:54.933Z,1.80
2022-08-27T21:17:24.578Z,1.40
2022-08-27T21:19:52.827Z,1.00
2022-08-27T21:22:20.524Z,2.40
2022-08-27T21:24:48.442Z,1.40
2022-08-27T21:27:16.238Z,2.00
2022-08-27T21:29:45.258Z,3.20
2022-08-27T21:32:13.024Z,1.00
2022-08-27T21:34:41.867Z,2.00
2022-08-27T21:37:09.545Z,4.00
2022-08-27T21:39:38.501Z,1.80
2022-08-27T21:42:06.208Z,4.00
2022-08-27T21:44:34.444Z,3.60
2022-08-27T21:47:03.907Z,2.80
2022-08-27T21:49:32.737Z,4.80
2022-08-27T21:52:00.481Z,2.40
2022-08-27T21:54:28.241Z,1.20
2022-08-27T21:56:55.868Z,2.40
2022-08-27T21:59:26.405Z,0.80
2022-08-27T22:02:00.551Z,1.00
2022-08-27T22:04:29.844Z,1.00
2022-08-27T22:06:59.719Z,2.40
2022-08-27T22:09:27.778Z,1.00
2022-08-27T22:11:55.464Z,1.00
2022-08-27T22:14:23.155Z,0.80
2022-08-27T22:16:50.878Z,1.00
2022-08-27T22:19:18.975Z,1.00
2022-08-27T22:21:46.687Z,0.00
2022-08-27T22:24:14.474Z,1.60
2022-08-27T22:26:42.335Z,1.60
2022-08-27T22:29:10.434Z,2.00
2022-08-27T22:31:38.536Z,1.00
2022-08-27T22:34:06.369Z,1.00
2022-08-27T22:36:34.030Z,1.60
2022-08-27T22:39:04.062Z,1.00
2022-08-27T22:41:32.488Z,2.00
2022-08-27T22:44:00.398Z,3.60
2022-08-27T22:46:28.126Z,1.00
2022-08-27T22:48:57.297Z,2.80
2022-08-27T22:51:25.026Z,1.80
2022-08-27T22:53:52.649Z,2.20
2022-08-27T22:56:20.493Z,2.00
2022-08-27T22:58:49.528Z,2.40
2022-08-27T23:01:17.347Z,2.00
2022-08-27T23:03:45.103Z,1.00
2022-08-27T23:06:12.881Z,1.00
2022-08-27T23:08:41.012Z,1.00
2022-08-27T23:11:08.662Z,0.80
2022-08-27T23:13:36.376Z,1.00
2022-08-27T23:16:04.101Z,2.00
2022-08-27T23:18:32.474Z,0.60
2022-08-27T23:21:00.173Z,2.00
2022-08-27T23:23:30.685Z,1.00
2022-08-27T23:26:16.124Z,0.20
2022-08-27T23:28:44.543Z,3.00
2022-08-27T23:31:12.319Z,1.00
2022-08-27T23:33:40.066Z,0.00
2022-08-27T23:36:07.950Z,1.00
2022-08-27T23:38:35.641Z,0.20
2022-08-27T23:41:03.714Z,0.20
2022-08-27T23:43:31.455Z,1.20
2022-08-27T23:45:59.172Z,1.00
2022-08-27T23:48:26.963Z,1.40
2022-08-27T23:50:54.985Z,0.00
2022-08-27T23:53:22.656Z,1.00
2022-08-27T23:55:50.349Z,1.00
2022-08-27T23:58:18.031Z,1.00
